LEBA/ODB METAR and TAF weather

Enter ICAO airport designator
Station Type Date Time Source
LEBA METAR 2019/02/20 23:30 UTC NOAA

LEBA 202330Z AUTO 00000KT 9999 NCD 08/06 Q1025


Station Type Date Time Source
LEBA Decoded METAR 2019/02/20 23:30 UTC NOAA

Cordoba / Aeropuerto, Spain (LEBA) 37-51N 004-51W 92M
Feb 20, 2019 - 06:30 PM EST / 2019.02.20 2330 UTC
Wind: Calm:0
Visibility: greater than 7 mile(s):0
Temperature: 46 F (8 C)
Dew Point: 42 F (6 C)
Relative Humidity: 87%
Pressure (altimeter): 30.27 in. Hg (1025 hPa)
ob: LEBA 202330Z AUTO 00000KT 9999 NCD 08/06 Q1025
cycle: 23

Station Type Date Time Source
LEBA TAF 2015/01/24 09:27 UTC NOAA

TAF TAF LEBA 240800Z 2409/2421 VRB02KT CAVOK


Example: see airport list